Oakvale, West Virginia
Current Conditions -  °F | °C
As of 11:52 PM on Saturday 20 Dec 2014 (Local Time) from KBLF Reporting Station
Overcast Overcast  
Wind Chill: 33°   Ceiling: 2900
Heat Index: 33°   Visibility: 8mi
Dew Point: 30°   Wind: 0mph
Humidity: 89%   Direction: NA
Pressure: 30.18"   Gusts: NA
Location:  37.33°N, 80.96°W
Report Text: KBLF 210452Z AUTO 00000KT 8SM SCT018 OVC029 01/M01 A3018 RMK AO2 SLP234 T00061011 400221039
Loading
Personal Weather Stations






























Interactive Weather Map New forecast layout! Learn more

10-Day Weather Forecast

Advertisements
Track Severe Weather on mobile